createdAt,value
2023-04-02T00:00:22.511Z,501.00
2023-04-02T00:01:22.479Z,502.00
2023-04-02T00:02:22.634Z,498.00
2023-04-02T00:03:22.650Z,498.00
2023-04-02T00:04:22.617Z,499.00
2023-04-02T00:05:22.569Z,499.00
2023-04-02T00:06:22.594Z,501.00
2023-04-02T00:07:22.623Z,498.00
2023-04-02T00:08:22.706Z,497.00
2023-04-02T00:09:22.655Z,495.00
2023-04-02T00:10:22.687Z,496.00
2023-04-02T00:11:22.706Z,498.00
2023-04-02T00:12:22.722Z,497.00
2023-04-02T00:13:22.761Z,498.00
2023-04-02T00:14:22.783Z,499.00
2023-04-02T00:15:22.792Z,501.00
2023-04-02T00:16:22.858Z,503.00
2023-04-02T00:17:22.866Z,504.00
2023-04-02T00:18:22.930Z,506.00
2023-04-02T00:19:22.886Z,508.00
2023-04-02T00:20:22.913Z,504.00
2023-04-02T00:21:22.944Z,503.00
2023-04-02T00:22:22.953Z,504.00
2023-04-02T00:23:22.994Z,506.00
2023-04-02T00:24:22.997Z,506.00
2023-04-02T00:25:23.024Z,504.00
2023-04-02T00:26:23.112Z,506.00
2023-04-02T00:27:23.074Z,505.00
2023-04-02T00:28:23.093Z,505.00
2023-04-02T00:29:23.120Z,505.00
2023-04-02T00:30:23.140Z,503.00
2023-04-02T00:31:23.391Z,501.00
2023-04-02T00:32:23.196Z,500.00
2023-04-02T00:33:23.199Z,504.00
2023-04-02T00:34:23.228Z,504.00
2023-04-02T00:35:23.242Z,503.00
2023-04-02T00:36:23.292Z,501.00
2023-04-02T00:37:23.303Z,499.00
2023-04-02T00:38:23.308Z,500.00
2023-04-02T00:39:23.353Z,498.00
2023-04-02T00:40:23.352Z,498.00
2023-04-02T00:41:23.376Z,498.00
2023-04-02T00:42:23.400Z,500.00
2023-04-02T00:43:23.417Z,497.00
2023-04-02T00:44:23.447Z,497.00
2023-04-02T00:45:23.525Z,495.00
2023-04-02T00:46:23.509Z,493.00
2023-04-02T00:47:23.581Z,493.00
2023-04-02T00:48:23.535Z,496.00
2023-04-02T00:49:23.560Z,496.00
2023-04-02T00:50:23.589Z,493.00
2023-04-02T00:51:23.610Z,494.00
2023-04-02T00:52:23.635Z,492.00
2023-04-02T00:53:23.645Z,491.00
2023-04-02T00:54:23.673Z,494.00
2023-04-02T00:55:23.744Z,495.00
2023-04-02T00:56:23.728Z,494.00
2023-04-02T00:57:23.790Z,493.00
2023-04-02T00:58:23.755Z,493.00
2023-04-02T00:59:23.788Z,492.00
2023-04-02T01:00:23.818Z,491.00
2023-04-02T01:01:23.893Z,493.00
2023-04-02T01:02:23.929Z,494.00
2023-04-02T01:03:23.966Z,495.00
2023-04-02T01:04:23.887Z,493.00
2023-04-02T01:05:24.199Z,495.00
2023-04-02T01:06:23.926Z,497.00
2023-04-02T01:07:23.951Z,495.00
2023-04-02T01:08:23.991Z,496.00
2023-04-02T01:09:24.670Z,494.00
2023-04-02T01:10:24.026Z,492.00
2023-04-02T01:11:24.032Z,492.00
2023-04-02T01:12:24.056Z,491.00
2023-04-02T01:13:24.096Z,491.00
2023-04-02T01:14:24.158Z,491.00
2023-04-02T01:15:24.122Z,491.00
2023-04-02T01:16:24.190Z,490.00
2023-04-02T01:17:24.224Z,492.00
2023-04-02T01:18:24.198Z,491.00
2023-04-02T01:19:24.219Z,493.00
2023-04-02T01:20:24.243Z,494.00
2023-04-02T01:21:24.273Z,494.00
2023-04-02T01:22:24.295Z,495.00
2023-04-02T01:23:24.334Z,498.00
2023-04-02T01:24:24.344Z,499.00
2023-04-02T01:25:24.367Z,502.00
2023-04-02T01:26:24.399Z,501.00
2023-04-02T01:27:24.464Z,497.00
2023-04-02T01:28:24.454Z,499.00
2023-04-02T01:29:24.563Z,496.00
2023-04-02T01:30:24.570Z,497.00
2023-04-02T01:31:24.603Z,496.00
2023-04-02T01:32:24.579Z,493.00
2023-04-02T01:33:24.577Z,493.00
2023-04-02T01:34:26.434Z,492.00
2023-04-02T01:35:24.632Z,491.00
2023-04-02T01:36:24.654Z,491.00
2023-04-02T01:37:24.686Z,492.00
2023-04-02T01:38:24.783Z,495.00
2023-04-02T01:39:24.732Z,495.00
2023-04-02T01:40:24.757Z,494.00
2023-04-02T01:41:24.888Z,493.00
2023-04-02T01:42:24.822Z,493.00
2023-04-02T01:43:24.853Z,490.00
2023-04-02T01:44:24.910Z,486.00
2023-04-02T01:45:24.938Z,487.00
2023-04-02T01:46:24.978Z,487.00
2023-04-02T01:47:24.996Z,485.00
2023-04-02T01:48:25.028Z,487.00
2023-04-02T01:49:25.017Z,487.00
2023-04-02T01:50:25.038Z,489.00
2023-04-02T01:51:25.053Z,488.00
2023-04-02T01:52:25.077Z,490.00
2023-04-02T01:53:25.104Z,489.00
2023-04-02T01:54:25.127Z,488.00
2023-04-02T01:55:25.154Z,488.00
2023-04-02T01:56:25.179Z,488.00
2023-04-02T01:57:25.221Z,489.00
2023-04-02T01:58:25.258Z,488.00
2023-04-02T01:59:25.268Z,485.00
2023-04-02T02:00:25.688Z,486.00
2023-04-02T02:01:25.331Z,487.00
2023-04-02T02:02:25.433Z,486.00
2023-04-02T02:03:25.367Z,487.00
2023-04-02T02:04:25.402Z,490.00
2023-04-02T02:05:25.427Z,491.00
2023-04-02T02:06:25.518Z,490.00
2023-04-02T02:07:25.486Z,488.00
2023-04-02T02:08:25.594Z,488.00
2023-04-02T02:09:25.589Z,488.00
2023-04-02T02:10:25.551Z,488.00
2023-04-02T02:11:25.659Z,485.00
2023-04-02T02:12:25.641Z,485.00
2023-04-02T02:13:25.665Z,484.00
2023-04-02T02:14:25.692Z,483.00
2023-04-02T02:15:25.787Z,483.00
2023-04-02T02:16:25.799Z,484.00
2023-04-02T02:17:25.792Z,485.00
2023-04-02T02:18:25.797Z,488.00
2023-04-02T02:19:25.874Z,490.00
2023-04-02T02:20:25.924Z,491.00
2023-04-02T02:21:25.850Z,491.00
2023-04-02T02:22:25.884Z,490.00
2023-04-02T02:23:25.918Z,489.00
2023-04-02T02:24:25.943Z,488.00
2023-04-02T02:25:25.976Z,486.00
2023-04-02T02:26:26.005Z,487.00
2023-04-02T02:27:26.053Z,488.00
2023-04-02T02:28:26.100Z,489.00
2023-04-02T02:29:26.096Z,492.00
2023-04-02T02:30:26.119Z,490.00
2023-04-02T02:31:26.153Z,490.00
2023-04-02T02:32:26.197Z,491.00
2023-04-02T02:33:26.225Z,491.00
2023-04-02T02:34:26.232Z,491.00
2023-04-02T02:35:26.330Z,489.00
2023-04-02T02:36:26.336Z,490.00
2023-04-02T02:37:26.316Z,488.00
2023-04-02T02:38:26.353Z,487.00
2023-04-02T02:39:26.393Z,484.00
2023-04-02T02:40:26.425Z,484.00
2023-04-02T02:41:27.199Z,483.00
2023-04-02T02:42:26.544Z,482.00
2023-04-02T02:43:26.519Z,484.00
2023-04-02T02:44:26.558Z,483.00
2023-04-02T02:45:26.587Z,481.00
2023-04-02T02:46:26.649Z,483.00
2023-04-02T02:47:26.733Z,483.00
2023-04-02T02:48:26.674Z,486.00
2023-04-02T02:49:26.730Z,488.00
2023-04-02T02:50:26.747Z,486.00
2023-04-02T02:51:26.780Z,486.00
2023-04-02T02:52:26.800Z,487.00
2023-04-02T02:53:26.840Z,484.00
2023-04-02T02:54:26.868Z,485.00
2023-04-02T02:55:26.898Z,484.00
2023-04-02T02:56:26.936Z,484.00
2023-04-02T02:57:27.012Z,484.00
2023-04-02T02:58:27.052Z,484.00
2023-04-02T02:59:27.026Z,482.00
2023-04-02T03:00:27.041Z,482.00
2023-04-02T03:01:27.737Z,481.00
2023-04-02T03:02:27.200Z,482.00
2023-04-02T03:03:27.245Z,485.00
2023-04-02T03:04:27.189Z,482.00
2023-04-02T03:05:27.206Z,483.00
2023-04-02T03:06:27.225Z,480.00
2023-04-02T03:07:27.262Z,479.00
2023-04-02T03:08:27.297Z,479.00
2023-04-02T03:09:27.393Z,479.00
2023-04-02T03:10:27.378Z,477.00
2023-04-02T03:11:27.482Z,476.00
2023-04-02T03:12:27.457Z,474.00
2023-04-02T03:13:27.491Z,475.00
2023-04-02T03:14:27.518Z,476.00
2023-04-02T03:15:27.601Z,475.00
2023-04-02T03:16:27.569Z,476.00
2023-04-02T03:17:27.630Z,478.00
2023-04-02T03:18:27.640Z,478.00
2023-04-02T03:19:27.667Z,478.00
2023-04-02T03:20:27.704Z,479.00
2023-04-02T03:21:27.739Z,480.00
2023-04-02T03:22:27.783Z,481.00
2023-04-02T03:23:27.827Z,478.00
2023-04-02T03:24:27.843Z,475.00
2023-04-02T03:25:27.882Z,474.00
2023-04-02T03:26:27.920Z,471.00
2023-04-02T03:27:27.971Z,473.00
2023-04-02T03:28:28.003Z,473.00
2023-04-02T03:29:28.093Z,472.00
2023-04-02T03:30:28.067Z,471.00
2023-04-02T03:31:28.160Z,471.00
2023-04-02T03:32:28.204Z,471.00
2023-04-02T03:33:28.151Z,469.00
2023-04-02T03:34:28.184Z,470.00
2023-04-02T03:35:28.217Z,475.00
2023-04-02T03:36:28.264Z,478.00
2023-04-02T03:37:28.277Z,477.00
2023-04-02T03:38:28.309Z,480.00
2023-04-02T03:39:28.327Z,484.00
2023-04-02T03:40:28.354Z,486.00
2023-04-02T03:41:28.389Z,485.00
2023-04-02T03:42:28.421Z,484.00
2023-04-02T03:43:28.505Z,485.00
2023-04-02T03:44:28.478Z,486.00
2023-04-02T03:45:28.514Z,486.00
2023-04-02T03:46:28.648Z,485.00
2023-04-02T03:47:28.592Z,484.00
2023-04-02T03:48:28.613Z,483.00
2023-04-02T03:49:28.653Z,481.00
2023-04-02T03:50:28.680Z,481.00
2023-04-02T03:51:28.718Z,480.00
2023-04-02T03:52:28.751Z,480.00
2023-04-02T03:53:28.799Z,480.00
2023-04-02T03:54:28.824Z,481.00
2023-04-02T03:55:28.860Z,483.00
2023-04-02T03:56:28.902Z,485.00
2023-04-02T03:57:28.964Z,485.00
2023-04-02T03:58:28.962Z,485.00
2023-04-02T03:59:28.986Z,487.00
2023-04-02T04:00:29.098Z,485.00
2023-04-02T04:01:29.059Z,486.00
2023-04-02T04:02:29.293Z,486.00
2023-04-02T04:03:29.122Z,486.00
2023-04-02T04:04:29.278Z,485.00
2023-04-02T04:05:29.269Z,484.00
2023-04-02T04:06:29.221Z,485.00
2023-04-02T04:07:29.246Z,488.00
2023-04-02T04:08:29.278Z,490.00
2023-04-02T04:09:29.311Z,490.00
2023-04-02T04:10:29.347Z,489.00
2023-04-02T04:11:29.387Z,488.00
2023-04-02T04:12:29.407Z,487.00
2023-04-02T04:13:29.448Z,484.00
2023-04-02T04:14:29.487Z,484.00
2023-04-02T04:15:30.230Z,482.00
2023-04-02T04:16:29.552Z,479.00
2023-04-02T04:17:29.620Z,480.00
2023-04-02T04:18:29.617Z,482.00
2023-04-02T04:19:29.647Z,483.00
2023-04-02T04:20:29.702Z,483.00
2023-04-02T04:21:29.717Z,484.00
2023-04-02T04:22:29.783Z,483.00
2023-04-02T04:23:29.811Z,483.00
2023-04-02T04:24:29.847Z,483.00
2023-04-02T04:25:30.035Z,484.00
2023-04-02T04:26:29.923Z,484.00
2023-04-02T04:27:29.971Z,487.00
2023-04-02T04:28:30.001Z,487.00
2023-04-02T04:29:30.044Z,487.00
2023-04-02T04:30:30.074Z,487.00
2023-04-02T04:31:30.133Z,487.00
2023-04-02T04:32:30.186Z,485.00
2023-04-02T04:33:30.180Z,483.00
2023-04-02T04:34:30.250Z,480.00
2023-04-02T04:35:30.314Z,479.00
2023-04-02T04:36:30.309Z,476.00
2023-04-02T04:37:30.346Z,478.00
2023-04-02T04:38:30.388Z,478.00
2023-04-02T04:39:30.436Z,479.00
2023-04-02T04:40:30.494Z,481.00
2023-04-02T04:41:30.511Z,481.00
2023-04-02T04:42:30.551Z,482.00
2023-04-02T04:43:30.589Z,481.00
2023-04-02T04:44:30.643Z,482.00
2023-04-02T04:45:30.677Z,480.00
2023-04-02T04:46:30.717Z,480.00
2023-04-02T04:47:30.792Z,480.00
2023-04-02T04:48:30.782Z,482.00
2023-04-02T04:49:30.826Z,482.00
2023-04-02T04:50:30.881Z,483.00
2023-04-02T04:51:30.899Z,483.00
2023-04-02T04:52:30.946Z,481.00
2023-04-02T04:53:30.985Z,479.00
2023-04-02T04:54:31.005Z,481.00
2023-04-02T04:55:31.134Z,482.00
2023-04-02T04:56:31.100Z,483.00
2023-04-02T04:57:31.215Z,481.00
2023-04-02T04:58:31.158Z,484.00
2023-04-02T04:59:31.207Z,484.00
2023-04-02T05:00:31.257Z,484.00
2023-04-02T05:01:31.447Z,485.00
2023-04-02T05:02:31.369Z,483.00
2023-04-02T05:03:31.370Z,480.00
2023-04-02T05:04:31.470Z,479.00
2023-04-02T05:05:31.502Z,480.00
2023-04-02T05:06:31.501Z,481.00
2023-04-02T05:07:31.569Z,480.00
2023-04-02T05:08:31.642Z,478.00
2023-04-02T05:09:31.646Z,478.00
2023-04-02T05:10:31.656Z,479.00
2023-04-02T05:11:31.712Z,481.00
2023-04-02T05:12:31.741Z,480.00
2023-04-02T05:13:31.789Z,480.00
2023-04-02T05:14:31.841Z,481.00
2023-04-02T05:15:31.961Z,482.00
2023-04-02T05:16:32.044Z,481.00
2023-04-02T05:17:32.005Z,480.00
2023-04-02T05:18:32.026Z,479.00
2023-04-02T05:19:32.071Z,478.00
2023-04-02T05:20:32.116Z,475.00
2023-04-02T05:21:32.163Z,473.00
2023-04-02T05:22:32.203Z,473.00
2023-04-02T05:23:32.254Z,473.00
2023-04-02T05:24:32.292Z,472.00
2023-04-02T05:25:32.344Z,472.00
2023-04-02T05:26:32.379Z,473.00
2023-04-02T05:27:32.421Z,470.00
2023-04-02T05:28:32.463Z,469.00
2023-04-02T05:29:32.529Z,468.00
2023-04-02T05:30:32.556Z,468.00
2023-04-02T05:31:32.667Z,468.00
2023-04-02T05:32:32.644Z,467.00
2023-04-02T05:33:32.676Z,471.00
2023-04-02T05:34:32.725Z,469.00
2023-04-02T05:35:32.801Z,468.00
2023-04-02T05:36:32.808Z,468.00
2023-04-02T05:37:32.862Z,470.00
2023-04-02T05:38:32.894Z,472.00
2023-04-02T05:39:32.951Z,472.00
2023-04-02T05:40:32.997Z,473.00
2023-04-02T05:41:33.027Z,473.00
2023-04-02T05:42:33.138Z,469.00
2023-04-02T05:43:33.104Z,470.00
2023-04-02T05:44:33.146Z,471.00
2023-04-02T05:45:34.006Z,470.00
2023-04-02T05:46:33.267Z,468.00
2023-04-02T05:47:33.341Z,468.00
2023-04-02T05:48:33.335Z,469.00
2023-04-02T05:49:33.374Z,467.00
2023-04-02T05:50:33.419Z,470.00
2023-04-02T05:51:33.507Z,470.00
2023-04-02T05:52:33.489Z,473.00
2023-04-02T05:53:33.534Z,473.00
2023-04-02T05:54:33.578Z,475.00
2023-04-02T05:55:33.805Z,477.00
2023-04-02T05:56:33.649Z,478.00
2023-04-02T05:57:44.466Z,475.00
2023-04-02T05:58:36.621Z,475.00
2023-04-02T05:59:33.673Z,479.00
2023-04-02T06:00:33.670Z,478.00
2023-04-02T06:01:33.678Z,477.00
2023-04-02T06:02:33.736Z,476.00
2023-04-02T06:03:33.717Z,478.00
2023-04-02T06:04:33.635Z,475.00
2023-04-02T06:05:33.902Z,474.00
2023-04-02T06:06:33.616Z,474.00
2023-04-02T06:07:33.616Z,473.00
2023-04-02T06:08:33.623Z,474.00
2023-04-02T06:09:33.603Z,472.00
2023-04-02T06:10:33.597Z,473.00
2023-04-02T06:11:33.587Z,473.00
2023-04-02T06:12:33.582Z,472.00
2023-04-02T06:13:33.580Z,473.00
2023-04-02T06:14:33.559Z,475.00
2023-04-02T06:15:33.674Z,476.00
2023-04-02T06:16:33.603Z,474.00
2023-04-02T06:17:33.584Z,474.00
2023-04-02T06:18:33.552Z,477.00
2023-04-02T06:19:33.528Z,476.00
2023-04-02T06:20:33.525Z,475.00
2023-04-02T06:21:33.525Z,477.00
2023-04-02T06:22:33.514Z,477.00
2023-04-02T06:23:33.523Z,477.00
2023-04-02T06:24:33.499Z,476.00
2023-04-02T06:25:33.781Z,478.00
2023-04-02T06:26:33.571Z,481.00
2023-04-02T06:27:33.793Z,480.00
2023-04-02T06:28:33.476Z,479.00
2023-04-02T06:29:36.278Z,479.00
2023-04-02T06:30:33.526Z,481.00
2023-04-02T06:31:34.288Z,480.00
2023-04-02T06:32:33.472Z,480.00
2023-04-02T06:33:33.447Z,479.00
2023-04-02T06:34:33.459Z,478.00
2023-04-02T06:35:33.688Z,479.00
2023-04-02T06:36:33.416Z,477.00
2023-04-02T06:37:33.418Z,478.00
2023-04-02T06:38:33.797Z,478.00
2023-04-02T06:39:33.403Z,477.00
2023-04-02T06:40:33.408Z,476.00
2023-04-02T06:41:33.382Z,477.00
2023-04-02T06:42:33.799Z,473.00
2023-04-02T06:43:33.545Z,471.00
2023-04-02T06:44:33.378Z,471.00
2023-04-02T06:45:33.544Z,471.00
2023-04-02T06:46:34.426Z,471.00
2023-04-02T06:47:33.370Z,471.00
2023-04-02T06:48:33.346Z,473.00
2023-04-02T06:49:33.330Z,473.00
2023-04-02T06:50:33.321Z,473.00
2023-04-02T06:51:33.320Z,471.00
2023-04-02T06:52:34.970Z,471.00
2023-04-02T06:53:33.305Z,473.00
2023-04-02T06:54:33.303Z,473.00
2023-04-02T06:55:33.660Z,470.00
2023-04-02T06:56:33.281Z,471.00
2023-04-02T06:57:33.278Z,473.00
2023-04-02T06:58:33.264Z,473.00
2023-04-02T06:59:33.263Z,474.00
2023-04-02T07:00:33.256Z,474.00
2023-04-02T07:01:33.253Z,475.00
2023-04-02T07:02:33.309Z,474.00
2023-04-02T07:03:33.229Z,475.00
2023-04-02T07:04:33.316Z,472.00
2023-04-02T07:05:33.405Z,471.00
2023-04-02T07:06:33.205Z,469.00
2023-04-02T07:07:33.196Z,471.00
2023-04-02T07:08:33.193Z,469.00
2023-04-02T07:09:33.203Z,471.00
2023-04-02T07:10:33.187Z,470.00
2023-04-02T07:11:33.188Z,468.00
2023-04-02T07:12:33.226Z,470.00
2023-04-02T07:13:33.236Z,473.00
2023-04-02T07:14:33.256Z,474.00
2023-04-02T07:15:33.438Z,472.00
2023-04-02T07:16:33.376Z,470.00
2023-04-02T07:17:33.340Z,471.00
2023-04-02T07:18:33.313Z,471.00
2023-04-02T07:19:33.319Z,470.00
2023-04-02T07:20:33.349Z,468.00
2023-04-02T07:21:33.313Z,471.00
2023-04-02T07:22:33.314Z,470.00
2023-04-02T07:23:33.382Z,469.00
2023-04-02T07:24:33.381Z,469.00
2023-04-02T07:25:33.564Z,470.00
2023-04-02T07:26:33.490Z,473.00
2023-04-02T07:27:33.550Z,472.00
2023-04-02T07:28:33.621Z,472.00
2023-04-02T07:29:33.682Z,471.00
2023-04-02T07:30:33.753Z,470.00
2023-04-02T07:31:33.818Z,472.00
2023-04-02T07:32:33.857Z,472.00
2023-04-02T07:33:33.884Z,474.00
2023-04-02T07:34:33.924Z,473.00
2023-04-02T07:35:34.399Z,471.00
2023-04-02T07:36:34.004Z,471.00
2023-04-02T07:37:34.047Z,471.00
2023-04-02T07:38:34.072Z,472.00
2023-04-02T07:39:36.206Z,476.00
2023-04-02T07:40:34.084Z,477.00
2023-04-02T07:41:34.086Z,477.00
2023-04-02T07:42:34.087Z,474.00
2023-04-02T07:43:34.068Z,472.00
2023-04-02T07:44:34.060Z,468.00
2023-04-02T07:45:34.370Z,468.00
2023-04-02T07:46:34.054Z,468.00
2023-04-02T07:47:34.054Z,468.00
2023-04-02T07:48:34.029Z,469.00
2023-04-02T07:49:34.049Z,469.00
2023-04-02T07:50:34.031Z,470.00
2023-04-02T07:51:34.806Z,468.00
2023-04-02T07:52:34.007Z,471.00
2023-04-02T07:53:34.008Z,471.00
2023-04-02T07:54:33.986Z,472.00
2023-04-02T07:55:34.175Z,472.00
2023-04-02T07:56:33.974Z,470.00
2023-04-02T07:57:34.031Z,473.00
2023-04-02T07:58:33.971Z,479.00
2023-04-02T07:59:33.947Z,480.00
2023-04-02T08:00:33.939Z,477.00
2023-04-02T08:01:33.949Z,480.00
2023-04-02T08:02:34.079Z,480.00
2023-04-02T08:03:33.989Z,479.00
2023-04-02T08:04:33.920Z,478.00
2023-04-02T08:05:34.074Z,478.00
2023-04-02T08:06:33.915Z,477.00
2023-04-02T08:07:33.895Z,479.00
2023-04-02T08:08:33.884Z,476.00
2023-04-02T08:09:33.878Z,475.00
2023-04-02T08:10:33.870Z,476.00
2023-04-02T08:11:33.865Z,479.00
2023-04-02T08:12:33.879Z,475.00
2023-04-02T08:13:33.866Z,477.00
2023-04-02T08:14:33.848Z,479.00
2023-04-02T08:15:34.032Z,483.00
2023-04-02T08:16:33.879Z,482.00
2023-04-02T08:17:33.867Z,482.00
2023-04-02T08:18:33.817Z,482.00
2023-04-02T08:19:41.389Z,484.00
2023-04-02T08:20:34.808Z,483.00
2023-04-02T08:21:33.801Z,482.00
2023-04-02T08:22:33.800Z,481.00
2023-04-02T08:23:33.780Z,480.00
2023-04-02T08:24:33.781Z,481.00
2023-04-02T08:25:34.016Z,480.00
2023-04-02T08:26:33.778Z,477.00
2023-04-02T08:27:33.766Z,478.00
2023-04-02T08:28:33.780Z,477.00
2023-04-02T08:29:33.751Z,476.00
2023-04-02T08:30:33.857Z,476.00
2023-04-02T08:31:33.812Z,477.00
2023-04-02T08:32:33.887Z,476.00
2023-04-02T08:33:33.846Z,475.00
2023-04-02T08:34:33.851Z,478.00
2023-04-02T08:35:34.253Z,476.00
2023-04-02T08:36:33.835Z,476.00
2023-04-02T08:37:33.913Z,476.00
2023-04-02T08:38:33.847Z,476.00
2023-04-02T08:39:33.824Z,477.00
2023-04-02T08:40:33.893Z,478.00
2023-04-02T08:41:33.908Z,479.00
2023-04-02T08:42:33.927Z,479.00
2023-04-02T08:43:33.927Z,480.00
2023-04-02T08:44:33.929Z,478.00
2023-04-02T08:45:33.916Z,480.00
2023-04-02T08:46:34.045Z,481.00
2023-04-02T08:47:34.015Z,481.00
2023-04-02T08:48:34.029Z,483.00
2023-04-02T08:49:34.095Z,484.00
2023-04-02T08:50:34.046Z,483.00
2023-04-02T08:51:34.044Z,484.00
2023-04-02T08:52:34.080Z,483.00
2023-04-02T08:53:34.114Z,483.00
2023-04-02T08:54:34.881Z,482.00
2023-04-02T08:55:34.305Z,480.00
2023-04-02T08:56:34.239Z,479.00
2023-04-02T08:57:34.284Z,477.00
2023-04-02T08:58:34.243Z,479.00
2023-04-02T08:59:34.276Z,478.00
2023-04-02T09:00:34.270Z,478.00
2023-04-02T09:01:34.301Z,479.00
2023-04-02T09:02:34.299Z,479.00
2023-04-02T09:03:34.304Z,478.00
2023-04-02T09:04:34.328Z,478.00
2023-04-02T09:05:34.628Z,478.00
2023-04-02T09:06:34.323Z,478.00
2023-04-02T09:07:34.326Z,476.00
2023-04-02T09:08:34.335Z,478.00
2023-04-02T09:09:34.356Z,479.00
2023-04-02T09:10:34.404Z,482.00
2023-04-02T09:11:34.458Z,483.00
2023-04-02T09:12:34.510Z,481.00
2023-04-02T09:13:34.850Z,479.00
2023-04-02T09:14:35.372Z,478.00
2023-04-02T09:15:34.932Z,479.00
2023-04-02T09:16:34.725Z,482.00
2023-04-02T09:17:42.792Z,482.00
2023-04-02T09:18:35.784Z,486.00
2023-04-02T09:19:34.771Z,482.00
2023-04-02T09:20:34.740Z,478.00
2023-04-02T09:21:34.739Z,476.00
2023-04-02T09:22:34.727Z,474.00
2023-04-02T09:23:35.351Z,471.00
2023-04-02T09:24:34.861Z,474.00
2023-04-02T09:25:34.989Z,474.00
2023-04-02T09:26:34.700Z,476.00
2023-04-02T09:27:34.714Z,479.00
2023-04-02T09:28:34.769Z,479.00
2023-04-02T09:29:35.362Z,479.00
2023-04-02T09:30:34.879Z,482.00
2023-04-02T09:31:35.064Z,482.00
2023-04-02T09:32:35.005Z,482.00
2023-04-02T09:33:35.039Z,482.00
2023-04-02T09:34:35.855Z,485.00
2023-04-02T09:35:35.118Z,484.00
2023-04-02T09:36:35.190Z,482.00
2023-04-02T09:37:35.197Z,480.00
2023-04-02T09:38:35.244Z,483.00
2023-04-02T09:39:35.282Z,483.00
2023-04-02T09:40:35.305Z,484.00
2023-04-02T09:41:36.910Z,488.00
2023-04-02T09:42:35.856Z,484.00
2023-04-02T09:43:35.374Z,484.00
2023-04-02T09:44:35.420Z,484.00
2023-04-02T09:45:35.615Z,482.00
2023-04-02T09:46:35.538Z,480.00
2023-04-02T09:47:37.097Z,479.00
2023-04-02T09:48:35.620Z,480.00
2023-04-02T09:49:35.683Z,479.00
2023-04-02T09:50:35.713Z,478.00
2023-04-02T09:51:35.723Z,476.00
2023-04-02T09:52:35.715Z,473.00
2023-04-02T09:53:35.728Z,473.00
2023-04-02T09:54:35.811Z,473.00
2023-04-02T09:55:35.956Z,472.00
2023-04-02T09:56:35.820Z,471.00
2023-04-02T09:57:35.891Z,471.00
2023-04-02T09:58:35.897Z,469.00
2023-04-02T09:59:35.910Z,471.00
2023-04-02T10:00:35.930Z,473.00
2023-04-02T10:01:36.135Z,472.00
2023-04-02T10:02:36.018Z,469.00
2023-04-02T10:03:35.963Z,465.00
2023-04-02T10:04:36.069Z,465.00
2023-04-02T10:06:35.983Z,463.00
2023-04-02T10:07:36.000Z,464.00
2023-04-02T10:08:35.957Z,464.00
2023-04-02T10:09:35.966Z,464.00
2023-04-02T10:10:36.586Z,464.00
2023-04-02T10:11:46.209Z,464.00
2023-04-02T10:12:36.947Z,464.00
2023-04-02T10:13:35.930Z,465.00
2023-04-02T10:14:35.931Z,467.00
2023-04-02T10:15:36.216Z,468.00
2023-04-02T10:16:35.978Z,470.00
2023-04-02T10:17:35.965Z,469.00
2023-04-02T10:18:35.899Z,469.00
2023-04-02T10:19:35.891Z,470.00
2023-04-02T10:20:41.761Z,470.00
2023-04-02T10:21:36.897Z,473.00
2023-04-02T10:22:35.893Z,473.00
2023-04-02T10:23:35.865Z,474.00
2023-04-02T10:24:35.936Z,473.00
2023-04-02T10:25:36.089Z,473.00
2023-04-02T10:26:35.856Z,469.00
2023-04-02T10:27:35.843Z,466.00
2023-04-02T10:28:35.827Z,467.00
2023-04-02T10:29:35.840Z,466.00
2023-04-02T10:30:35.853Z,471.00
2023-04-02T10:31:35.839Z,470.00
2023-04-02T10:32:35.948Z,468.00
2023-04-02T10:33:35.799Z,468.00
2023-04-02T10:34:35.862Z,467.00
2023-04-02T10:35:36.096Z,466.00
2023-04-02T10:36:35.860Z,465.00
2023-04-02T10:37:35.901Z,465.00
2023-04-02T10:38:35.934Z,462.00
2023-04-02T10:39:36.001Z,460.00
2023-04-02T10:40:36.018Z,459.00
2023-04-02T10:41:36.059Z,457.00
2023-04-02T10:42:36.105Z,457.00
2023-04-02T10:43:36.144Z,456.00
2023-04-02T10:44:36.185Z,455.00
2023-04-02T10:45:36.600Z,456.00
2023-04-02T10:46:36.310Z,460.00
2023-04-02T10:47:36.476Z,458.00
2023-04-02T10:48:36.369Z,458.00
2023-04-02T10:49:36.509Z,461.00
2023-04-02T10:50:36.529Z,462.00
2023-04-02T10:51:36.524Z,463.00
2023-04-02T10:52:36.644Z,462.00
2023-04-02T10:53:36.615Z,461.00
2023-04-02T10:54:36.659Z,460.00
2023-04-02T10:55:37.012Z,462.00
2023-04-02T10:56:47.861Z,463.00
2023-04-02T10:57:37.851Z,462.00
2023-04-02T10:58:36.783Z,459.00
2023-04-02T10:59:36.728Z,460.00
2023-04-02T11:00:36.732Z,462.00
2023-04-02T11:01:36.770Z,465.00
2023-04-02T11:02:36.882Z,466.00
2023-04-02T11:03:36.821Z,466.00
2023-04-02T11:04:36.701Z,467.00
2023-04-02T11:05:37.021Z,465.00
2023-04-02T11:06:36.728Z,465.00
2023-04-02T11:07:36.791Z,463.00
2023-04-02T11:08:36.831Z,459.00
2023-04-02T11:09:36.893Z,457.00
2023-04-02T11:10:36.941Z,456.00
2023-04-02T11:11:36.996Z,454.00
2023-04-02T11:12:41.586Z,454.00
2023-04-02T11:13:37.044Z,452.00
2023-04-02T11:14:37.036Z,453.00
2023-04-02T11:15:37.288Z,453.00
2023-04-02T11:16:39.461Z,457.00
2023-04-02T11:17:38.032Z,460.00
2023-04-02T11:18:37.016Z,460.00
2023-04-02T11:19:37.005Z,462.00
2023-04-02T11:20:36.996Z,463.00
2023-04-02T11:21:42.200Z,463.00
2023-04-02T11:22:38.059Z,462.00
2023-04-02T11:23:36.992Z,463.00
2023-04-02T11:24:36.982Z,461.00
2023-04-02T11:25:37.225Z,460.00
2023-04-02T11:26:36.956Z,462.00
2023-04-02T11:27:37.032Z,463.00
2023-04-02T11:28:36.943Z,466.00
2023-04-02T11:29:36.934Z,467.00
2023-04-02T11:30:36.938Z,465.00
2023-04-02T11:31:37.062Z,467.00
2023-04-02T11:32:37.198Z,464.00
2023-04-02T11:33:39.841Z,464.00
2023-04-02T11:34:38.101Z,464.00
2023-04-02T11:35:37.323Z,465.00
2023-04-02T11:36:37.080Z,464.00
2023-04-02T11:37:37.148Z,462.00
2023-04-02T11:38:37.069Z,460.00
2023-04-02T11:39:37.060Z,461.00
2023-04-02T11:40:37.053Z,462.00
2023-04-02T11:41:37.049Z,463.00
2023-04-02T11:42:37.047Z,465.00
2023-04-02T11:43:37.108Z,466.00
2023-04-02T11:44:37.160Z,466.00
2023-04-02T11:45:46.519Z,468.00
2023-04-02T11:46:38.266Z,468.00
2023-04-02T11:47:37.223Z,465.00
2023-04-02T11:48:37.196Z,463.00
2023-04-02T11:49:37.206Z,462.00
2023-04-02T11:50:37.185Z,463.00
2023-04-02T11:51:37.164Z,463.00
2023-04-02T11:52:37.174Z,463.00
2023-04-02T11:53:37.158Z,464.00
2023-04-02T11:54:37.203Z,467.00
2023-04-02T11:55:37.366Z,467.00
2023-04-02T11:56:37.321Z,467.00
2023-04-02T11:57:37.569Z,467.00
2023-04-02T11:58:37.428Z,467.00
2023-04-02T11:59:37.469Z,467.00
2023-04-02T12:00:37.727Z,464.00
2023-04-02T12:01:37.576Z,463.00
2023-04-02T12:02:37.781Z,462.00
2023-04-02T12:03:37.688Z,466.00
2023-04-02T12:04:37.755Z,468.00
2023-04-02T12:05:38.023Z,468.00
2023-04-02T12:06:37.851Z,468.00
2023-04-02T12:07:37.923Z,469.00
2023-04-02T12:08:50.663Z,468.00
2023-04-02T12:09:39.917Z,468.00
2023-04-02T12:10:37.973Z,466.00
2023-04-02T12:11:38.040Z,466.00
2023-04-02T12:12:37.950Z,465.00
2023-04-02T12:13:37.937Z,466.00
2023-04-02T12:14:37.932Z,464.00
2023-04-02T12:15:37.943Z,465.00
2023-04-02T12:16:37.979Z,466.00
2023-04-02T12:17:38.004Z,465.00
2023-04-02T12:18:38.021Z,467.00
2023-04-02T12:19:38.919Z,467.00
2023-04-02T12:20:38.173Z,465.00
2023-04-02T12:21:38.916Z,465.00
2023-04-02T12:22:38.277Z,464.00
2023-04-02T12:23:38.338Z,464.00
2023-04-02T12:24:38.394Z,461.00
2023-04-02T12:25:38.461Z,462.00
2023-04-02T12:26:38.558Z,462.00
2023-04-02T12:27:39.455Z,461.00
2023-04-02T12:28:38.667Z,462.00
2023-04-02T12:29:38.689Z,464.00